Time;durP1;ratioP1;P1;durP2;ratioP2;P2;SDS_P1;SDS_P2;PMS_P1;PMS_P2;Temp;Humidity;BMP_temperature;BMP_pressure;BME280_temperature;BME280_humidity;BME280_pressure;Samples;Min_cycle;Max_cycle;Signal;HPM_P1;HPM_P2
2023/10/26 00:01:21;;;;;;;7.78;6.25;;;;;;;12.14;75.54;99575.63;5123538;28;20267;-62
2023/10/26 00:03:50;;;;;;;7.55;6.40;;;;;;;12.14;75.63;99580.22;5124018;28;20052;-62
2023/10/26 00:06:19;;;;;;;7.38;6.57;;;;;;;12.15;75.38;99585.31;5121013;28;20108;-62
2023/10/26 00:08:47;;;;;;;6.57;5.78;;;;;;;12.17;75.09;99588.56;5119073;27;20069;-62
2023/10/26 00:11:14;;;;;;;13.05;7.00;;;;;;;12.16;75.02;99586.94;5119907;27;20088;-62
2023/10/26 00:13:42;;;;;;;7.38;6.43;;;;;;;12.18;74.89;99589.38;5120142;27;20050;-63
2023/10/26 00:16:10;;;;;;;7.60;6.70;;;;;;;12.17;75.03;99587.75;5120105;27;20039;-63
2023/10/26 00:18:38;;;;;;;7.78;6.43;;;;;;;12.15;74.86;99598.78;5121493;28;20077;-63
2023/10/26 00:21:07;;;;;;;7.95;5.88;;;;;;;12.10;74.79;99588.03;5120937;28;20052;-62
2023/10/26 00:23:35;;;;;;;7.40;6.18;;;;;;;12.13;75.06;99598.28;5120326;28;20121;-62
2023/10/26 00:26:03;;;;;;;7.13;5.95;;;;;;;12.10;75.17;99604.19;5122241;27;20055;-63
2023/10/26 00:28:30;;;;;;;7.38;5.43;;;;;;;12.12;74.84;99606.63;5122700;27;20047;-63
2023/10/26 00:30:58;;;;;;;6.45;5.55;;;;;;;12.13;74.66;99603.66;5122824;28;20047;-62
2023/10/26 00:33:26;;;;;;;9.45;6.70;;;;;;;12.12;74.56;99606.63;5121062;28;20063;-63
2023/10/26 00:35:54;;;;;;;6.85;5.32;;;;;;;12.11;74.46;99613.88;5120357;28;20434;-62
2023/10/26 00:38:23;;;;;;;7.47;5.50;;;;;;;12.04;74.41;99608.75;5120601;28;20482;-62
2023/10/26 00:40:51;;;;;;;9.65;5.63;;;;;;;12.12;74.53;99614.69;5119045;28;20047;-63
2023/10/26 00:43:22;;;;;;;8.32;6.07;;;;;;;12.13;74.51;99625.22;5120871;28;20162;-63
2023/10/26 00:45:52;;;;;;;10.75;5.55;;;;;;;12.08;74.86;99611.72;5118552;28;20055;-63
2023/10/26 00:48:20;;;;;;;7.55;5.97;;;;;;;12.15;74.78;99624.91;5121031;28;20130;-62
2023/10/26 00:50:49;;;;;;;9.30;6.05;;;;;;;12.15;74.30;99633.81;5120028;28;20053;-62
2023/10/26 00:53:19;;;;;;;9.43;6.20;;;;;;;12.14;74.72;99632.19;5121016;28;20056;-62
2023/10/26 00:55:50;;;;;;;7.00;5.80;;;;;;;12.16;74.33;99634.63;5119155;28;20072;-62
2023/10/26 00:58:21;;;;;;;6.70;5.65;;;;;;;12.16;74.35;99634.63;5122524;28;20055;-63
2023/10/26 01:00:49;;;;;;;8.15;6.28;;;;;;;12.16;74.47;99638.13;5121131;27;20044;-62
2023/10/26 01:03:17;;;;;;;6.72;5.70;;;;;;;12.15;74.32;99633.81;5122771;27;20044;-62
2023/10/26 01:05:45;;;;;;;7.18;5.28;;;;;;;12.13;74.58;99635.97;5123604;28;20039;-62
2023/10/26 01:08:13;;;;;;;9.70;6.03;;;;;;;12.13;74.32;99645.94;5117908;27;20073;-62
2023/10/26 01:10:40;;;;;;;7.50;6.05;;;;;;;12.12;74.40;99641.63;5123378;28;20485;-62
2023/10/26 01:13:11;;;;;;;8.02;6.05;;;;;;;12.14;74.16;99647.53;5124561;27;20052;-63
2023/10/26 01:15:38;;;;;;;6.32;5.38;;;;;;;12.14;74.41;99636.75;5119170;28;20040;-62
2023/10/26 01:18:06;;;;;;;7.55;5.93;;;;;;;12.16;74.45;99642.69;5124040;27;20056;-61
2023/10/26 01:20:34;;;;;;;7.72;6.10;;;;;;;12.15;74.29;99643.78;5129320;27;20065;-62
2023/10/26 01:23:03;;;;;;;7.32;5.78;;;;;;;12.15;74.14;99638.38;5124866;27;20100;-62
2023/10/26 01:25:31;;;;;;;7.50;5.88;;;;;;;12.14;74.44;99642.97;5130118;27;20065;-62
2023/10/26 01:27:59;;;;;;;7.80;5.45;;;;;;;12.15;74.23;99643.78;5122615;27;20044;-62
2023/10/26 01:30:27;;;;;;;7.47;5.53;;;;;;;12.15;74.00;99643.78;5127393;27;20051;-62
2023/10/26 01:32:55;;;;;;;8.20;5.53;;;;;;;12.13;74.39;99635.97;5125566;27;20059;-61
2023/10/26 01:35:23;;;;;;;6.43;5.60;;;;;;;12.14;73.97;99647.53;5124283;27;20105;-62
2023/10/26 01:37:50;;;;;;;7.35;5.72;;;;;;;12.13;74.07;99649.44;5122167;27;20055;-62
2023/10/26 01:40:20;;;;;;;6.53;5.60;;;;;;;12.15;73.97;99643.78;5124199;27;20342;-62
2023/10/26 01:42:47;;;;;;;8.98;5.97;;;;;;;12.15;74.15;99657.25;5127912;27;20060;-62
2023/10/26 01:45:15;;;;;;;8.43;6.35;;;;;;;12.15;74.00;99647.28;5124198;27;20052;-63
2023/10/26 01:47:43;;;;;;;8.38;5.65;;;;;;;12.15;74.23;99644.59;5123811;27;20051;-62
2023/10/26 01:50:11;;;;;;;8.10;5.53;;;;;;;12.17;74.19;99644.31;5128741;27;20051;-62
2023/10/26 01:52:39;;;;;;;7.93;5.55;;;;;;;12.16;73.84;99648.09;5128132;27;20051;-63
2023/10/26 01:55:08;;;;;;;8.00;5.75;;;;;;;12.17;73.92;99642.44;5125214;27;20051;-63
2023/10/26 01:57:37;;;;;;;6.93;5.82;;;;;;;12.17;73.72;99649.72;5123090;27;20110;-62
2023/10/26 02:00:06;;;;;;;8.27;5.55;;;;;;;12.18;73.64;99640.56;5120779;27;20051;-62
2023/10/26 02:02:34;;;;;;;6.50;4.97;;;;;;;12.17;73.80;99642.44;5121872;27;20108;-62
2023/10/26 02:05:02;;;;;;;7.07;5.35;;;;;;;12.18;74.12;99643.25;5122070;28;20040;-62
2023/10/26 02:07:29;;;;;;;8.13;5.20;;;;;;;12.17;74.04;99637.06;5118263;27;20051;-62
2023/10/26 02:09:57;;;;;;;5.80;4.93;;;;;;;12.18;73.63;99635.16;5127720;27;20089;-62
2023/10/26 02:12:25;;;;;;;6.55;5.18;;;;;;;12.17;74.04;99633.53;5123585;27;20051;-62
2023/10/26 02:14:54;;;;;;;5.85;4.68;;;;;;;12.17;73.64;99638.94;5132117;27;20420;-62
2023/10/26 02:17:22;;;;;;;7.22;5.47;;;;;;;12.16;74.01;99640.81;5120047;27;20051;-61
2023/10/26 02:19:50;;;;;;;7.82;4.45;;;;;;;12.17;73.64;99638.94;5119685;27;20077;-61
2023/10/26 02:22:17;;;;;;;6.50;5.18;;;;;;;12.17;73.53;99628.97;5122296;27;20055;-62
2023/10/26 02:24:45;;;;;;;9.65;4.60;;;;;;;12.14;73.54;99634.06;5126923;27;20096;-63
2023/10/26 02:27:13;;;;;;;6.07;4.82;;;;;;;12.15;73.53;99630.31;5123723;27;20118;-63
2023/10/26 02:29:41;;;;;;;6.63;4.78;;;;;;;12.14;73.83;99618.72;5120984;27;20063;-62
2023/10/26 02:32:10;;;;;;;6.25;5.07;;;;;;;12.16;73.58;99629.22;5121460;27;20504;-62
2023/10/26 02:34:38;;;;;;;6.28;5.07;;;;;;;12.14;73.65;99615.22;5126262;27;20085;-63
2023/10/26 02:37:05;;;;;;;6.43;4.80;;;;;;;12.14;73.35;99626.81;5119853;27;20556;-62
2023/10/26 02:39:33;;;;;;;7.03;5.13;;;;;;;12.14;73.52;99631.38;5121958;28;20066;-62
2023/10/26 02:42:00;;;;;;;5.65;4.72;;;;;;;12.14;73.60;99636.75;5123621;27;20043;-63
2023/10/26 02:44:28;;;;;;;6.10;4.65;;;;;;;12.15;73.58;99633.00;5123084;27;20556;-62
2023/10/26 02:46:56;;;;;;;7.88;4.80;;;;;;;12.12;73.30;99622.78;5122139;27;20040;-63
2023/10/26 02:49:25;;;;;;;7.22;4.22;;;;;;;12.14;73.49;99632.19;5123983;27;20054;-62
2023/10/26 02:51:53;;;;;;;9.88;5.05;;;;;;;12.16;73.57;99626.53;5122738;27;20048;-63
2023/10/26 02:54:20;;;;;;;8.93;5.57;;;;;;;12.16;73.56;99638.13;5125191;27;20451;-62
2023/10/26 02:56:48;;;;;;;6.07;4.43;;;;;;;12.15;73.38;99644.59;5123927;27;20085;-63
2023/10/26 02:59:16;;;;;;;7.05;4.38;;;;;;;12.17;73.30;99633.53;5125154;27;20455;-62
2023/10/26 03:01:44;;;;;;;5.38;4.00;;;;;;;12.16;73.49;99623.84;5122985;27;20040;-63
2023/10/26 03:04:12;;;;;;;9.43;4.60;;;;;;;12.14;73.48;99620.59;5114626;28;20044;-63
2023/10/26 03:06:41;;;;;;;6.15;4.22;;;;;;;12.14;73.29;99626.00;5122004;27;20131;-62
2023/10/26 03:09:09;;;;;;;6.72;4.45;;;;;;;12.14;73.38;99629.50;5123897;28;20048;-62
2023/10/26 03:11:37;;;;;;;5.85;4.22;;;;;;;12.12;73.35;99636.25;5123623;28;20066;-63
2023/10/26 03:14:05;;;;;;;5.18;4.15;;;;;;;12.12;73.35;99625.47;5117090;28;20048;-62
2023/10/26 03:16:33;;;;;;;7.93;4.35;;;;;;;12.11;73.55;99640.00;5125169;28;20108;-63
2023/10/26 03:19:01;;;;;;;7.47;4.70;;;;;;;12.10;73.38;99641.09;5125126;28;20043;-62
2023/10/26 03:21:29;;;;;;;6.00;4.18;;;;;;;12.09;73.27;99634.06;5116485;28;20405;-62
2023/10/26 03:23:58;;;;;;;5.57;4.20;;;;;;;12.08;73.20;99624.38;5122180;28;20057;-62
2023/10/26 03:26:26;;;;;;;6.53;4.55;;;;;;;11.96;73.44;99614.63;5121241;28;20044;-62
2023/10/26 03:28:53;;;;;;;6.70;4.93;;;;;;;12.07;73.17;99626.25;5122205;28;20051;-62
2023/10/26 03:31:21;;;;;;;8.50;4.50;;;;;;;12.07;73.31;99617.38;5121857;28;20052;-63
2023/10/26 03:33:50;;;;;;;8.75;5.10;;;;;;;12.07;73.34;99617.38;5118667;28;20184;-63
2023/10/26 03:36:20;;;;;;;6.47;4.13;;;;;;;12.07;73.00;99620.06;5115201;28;20051;-62
2023/10/26 03:38:50;;;;;;;5.55;4.57;;;;;;;12.05;73.21;99609.56;5113161;28;20102;-63
2023/10/26 03:41:19;;;;;;;8.52;4.70;;;;;;;12.06;73.07;99611.16;5113676;28;20488;-63
2023/10/26 03:43:50;;;;;;;6.47;5.13;;;;;;;12.05;73.35;99613.06;5119074;28;20139;-63
2023/10/26 03:46:18;;;;;;;6.15;4.97;;;;;;;12.05;72.87;99618.44;5120239;28;20036;-62
2023/10/26 03:48:46;;;;;;;6.53;4.55;;;;;;;12.04;73.09;99622.19;5116817;28;20101;-63
2023/10/26 03:51:14;;;;;;;6.15;5.13;;;;;;;12.05;73.29;99610.38;5120818;28;20097;-62
2023/10/26 03:53:42;;;;;;;5.47;4.47;;;;;;;12.03;73.16;99609.81;5118729;28;20052;-62
2023/10/26 03:56:10;;;;;;;6.45;5.15;;;;;;;12.01;72.98;99590.41;5116246;28;20078;-62
2023/10/26 03:58:39;;;;;;;6.35;5.00;;;;;;;12.02;73.11;99589.34;5121510;28;20040;-62
2023/10/26 04:01:06;;;;;;;7.18;4.57;;;;;;;12.02;72.67;99594.72;5114568;28;20048;-62
2023/10/26 04:03:34;;;;;;;6.55;4.72;;;;;;;12.03;73.10;99585.56;5121815;28;20048;-62
2023/10/26 04:06:03;;;;;;;7.88;4.63;;;;;;;12.02;72.99;99593.91;5117135;28;20102;-62
2023/10/26 04:08:30;;;;;;;6.53;4.88;;;;;;;11.98;72.81;99584.75;5111495;28;20134;-62
2023/10/26 04:10:58;;;;;;;6.00;4.78;;;;;;;12.02;72.89;99583.16;5111052;28;20051;-62
2023/10/26 04:13:30;;;;;;;5.55;4.72;;;;;;;12.02;72.51;99572.38;5113890;28;20097;-62
2023/10/26 04:16:03;;;;;;;7.00;5.35;;;;;;;12.03;72.57;99582.06;5118377;28;20043;-62
2023/10/26 04:18:30;;;;;;;6.43;4.90;;;;;;;12.04;72.61;99594.47;5114101;28;20103;-62
2023/10/26 04:20:58;;;;;;;5.68;4.57;;;;;;;12.01;72.64;99603.06;5112930;28;20048;-62
2023/10/26 04:23:27;;;;;;;7.90;5.05;;;;;;;12.01;72.72;99595.00;5117259;28;20126;-62
2023/10/26 04:25:55;;;;;;;6.95;4.93;;;;;;;11.99;72.73;99592.56;5119830;28;20067;-62
2023/10/26 04:28:22;;;;;;;6.25;4.88;;;;;;;11.99;72.39;99600.63;5118540;28;20039;-62
2023/10/26 04:30:53;;;;;;;6.00;4.93;;;;;;;12.00;72.49;99607.63;5119573;28;20047;-62
2023/10/26 04:33:22;;;;;;;5.93;4.97;;;;;;;12.00;72.18;99599.56;5120321;28;20048;-62
2023/10/26 04:35:50;;;;;;;6.28;4.60;;;;;;;11.99;72.20;99600.63;5115290;28;20377;-61
2023/10/26 04:38:18;;;;;;;7.47;5.03;;;;;;;12.00;72.32;99599.56;5112976;28;20036;-61
2023/10/26 04:40:46;;;;;;;6.68;4.88;;;;;;;11.98;72.34;99599.00;5117404;28;20123;-62
2023/10/26 04:43:14;;;;;;;6.32;4.88;;;;;;;11.98;71.92;99600.91;5120176;28;20123;-62
2023/10/26 04:45:42;;;;;;;7.93;5.40;;;;;;;11.97;71.84;99596.59;5117971;28;20072;-62
2023/10/26 04:48:10;;;;;;;7.07;5.35;;;;;;;11.96;71.94;99593.06;5121018;28;20044;-62
2023/10/26 04:50:39;;;;;;;7.10;5.10;;;;;;;11.96;72.05;99593.06;5122283;28;20063;-64
2023/10/26 04:53:07;;;;;;;6.75;5.20;;;;;;;11.94;71.91;99594.41;5118022;28;20052;-64
2023/10/26 04:55:35;;;;;;;6.32;4.68;;;;;;;11.89;71.99;99584.44;5115742;28;20122;-63
2023/10/26 04:58:03;;;;;;;9.82;5.70;;;;;;;11.93;71.58;99595.47;5115166;28;20051;-64
2023/10/26 05:00:32;;;;;;;8.43;5.55;;;;;;;11.93;71.95;99592.78;5119914;28;20074;-64
2023/10/26 05:03:00;;;;;;;6.65;4.82;;;;;;;11.92;71.90;99600.06;5116852;28;20140;-64
2023/10/26 05:05:28;;;;;;;7.85;5.32;;;;;;;11.89;71.45;99595.19;5114924;28;20096;-63
2023/10/26 05:07:57;;;;;;;6.15;5.28;;;;;;;11.87;71.71;99589.25;5119862;28;20073;-64
2023/10/26 05:10:25;;;;;;;6.53;4.93;;;;;;;11.92;71.41;99591.16;5115597;28;20044;-64
2023/10/26 05:12:53;;;;;;;6.45;5.18;;;;;;;11.91;71.23;99586.84;5119074;28;20097;-64
2023/10/26 05:15:21;;;;;;;11.55;5.18;;;;;;;11.89;71.28;99581.72;5118717;28;20122;-64
2023/10/26 05:17:48;;;;;;;8.45;5.45;;;;;;;11.87;71.74;99581.19;5116707;28;20044;-61
2023/10/26 05:20:16;;;;;;;5.40;4.53;;;;;;;11.86;71.60;99586.81;5120003;28;20111;-60
2023/10/26 05:22:44;;;;;;;8.98;6.18;;;;;;;11.83;71.55;99584.66;5119868;28;20120;-62
2023/10/26 05:25:13;;;;;;;7.20;5.38;;;;;;;11.83;71.96;99587.34;5117823;28;20071;-63
2023/10/26 05:27:41;;;;;;;10.50;6.05;;;;;;;11.83;71.68;99576.59;5120557;28;20044;-63
2023/10/26 05:30:09;;;;;;;8.10;6.45;;;;;;;11.83;71.78;99577.41;5113430;28;20047;-66
2023/10/26 05:32:38;;;;;;;7.95;6.18;;;;;;;11.84;71.72;99572.81;5119375;28;20589;-65
2023/10/26 05:35:07;;;;;;;8.85;6.18;;;;;;;11.79;72.03;99564.72;5121012;28;20048;-65
2023/10/26 05:37:37;;;;;;;7.07;5.72;;;;;;;11.73;71.60;99553.88;4844112;28;10001116;-65
2023/10/26 05:40:07;;;;;;;8.20;5.70;;;;;;;11.83;71.65;99573.88;5110437;28;20332;-62
2023/10/26 05:42:36;;;;;;;9.23;6.03;;;;;;;11.85;71.65;99579.81;5114774;28;20047;-64
2023/10/26 05:45:05;;;;;;;9.32;5.88;;;;;;;11.79;71.63;99567.41;5115539;28;20211;-64
2023/10/26 05:47:33;;;;;;;7.63;6.45;;;;;;;11.84;71.92;99575.50;5119652;28;20416;-62
2023/10/26 05:50:01;;;;;;;9.48;5.95;;;;;;;11.84;71.77;99572.81;5118330;28;20063;-63
2023/10/26 05:52:28;;;;;;;8.75;6.18;;;;;;;11.83;71.90;99569.31;5112645;28;20047;-64
2023/10/26 05:54:56;;;;;;;6.95;5.88;;;;;;;11.84;72.05;99570.13;5117646;28;20047;-59
2023/10/26 05:57:25;;;;;;;9.00;7.72;;;;;;;11.82;71.81;99569.56;5113943;28;20409;-60
2023/10/26 05:59:55;;;;;;;8.48;6.57;;;;;;;11.82;72.04;99559.63;5122460;28;20051;-61
2023/10/26 06:02:22;;;;;;;11.32;7.55;;;;;;;11.81;71.79;99566.06;5120871;28;20048;-63
2023/10/26 06:04:52;;;;;;;8.95;7.45;;;;;;;11.81;71.79;99563.38;5121894;28;20058;-62
2023/10/26 06:07:19;;;;;;;8.98;7.07;;;;;;;11.81;72.10;99570.66;5122105;28;20052;-61
2023/10/26 06:09:47;;;;;;;13.30;9.75;;;;;;;11.73;72.76;99566.53;5125231;28;20044;-63
2023/10/26 06:12:15;;;;;;;10.27;8.20;;;;;;;11.72;72.32;99552.28;5124036;28;20051;-62
2023/10/26 06:14:43;;;;;;;9.40;7.85;;;;;;;11.72;72.74;99557.66;5126052;28;20052;-63
2023/10/26 06:17:12;;;;;;;11.10;8.95;;;;;;;11.74;72.35;99562.78;5124398;28;20044;-63
2023/10/26 06:19:40;;;;;;;10.32;8.50;;;;;;;11.76;72.27;99570.59;5115545;28;20044;-62
2023/10/26 06:22:08;;;;;;;11.10;8.88;;;;;;;11.77;72.20;99569.53;5122386;28;20051;-62
2023/10/26 06:24:36;;;;;;;11.30;8.88;;;;;;;11.77;72.07;99566.81;5118396;28;20112;-63
2023/10/26 06:27:04;;;;;;;10.30;8.45;;;;;;;11.77;72.11;99561.44;5122813;28;20070;-63
2023/10/26 06:29:32;;;;;;;10.68;8.13;;;;;;;11.77;72.00;99553.38;5118414;28;20047;-61
2023/10/26 06:31:59;;;;;;;11.23;8.88;;;;;;;11.77;72.41;99559.59;5121396;28;20173;-63
2023/10/26 06:34:29;;;;;;;11.38;9.20;;;;;;;11.78;72.44;99563.09;5126794;28;20048;-62
2023/10/26 06:36:56;;;;;;;10.13;8.07;;;;;;;11.77;72.07;99566.81;5117496;28;20039;-63
2023/10/26 06:39:24;;;;;;;10.68;8.40;;;;;;;11.76;72.09;99567.91;5125318;28;20065;-62
2023/10/26 06:41:52;;;;;;;11.27;8.57;;;;;;;11.77;72.12;99564.13;5124843;28;20048;-62
2023/10/26 06:44:20;;;;;;;12.05;9.65;;;;;;;11.76;72.15;99562.50;5121387;28;20062;-62
2023/10/26 06:46:48;;;;;;;11.27;8.75;;;;;;;11.78;72.10;99563.91;5123999;28;20047;-62
2023/10/26 06:49:16;;;;;;;14.63;9.30;;;;;;;11.81;72.03;99562.56;5126034;28;20058;-63
2023/10/26 06:51:58;;;;;;;15.88;10.43;;;;;;;11.79;72.10;99553.94;5122837;28;20056;-62
2023/10/26 06:54:26;;;;;;;12.18;9.60;;;;;;;11.78;72.05;99549.63;5120647;28;20426;-62
2023/10/26 06:56:55;;;;;;;13.88;10.40;;;;;;;11.78;72.11;99552.34;5124706;28;20067;-62
2023/10/26 06:59:22;;;;;;;13.73;10.30;;;;;;;11.79;72.09;99551.25;5126447;28;20050;-62
2023/10/26 07:01:50;;;;;;;13.65;10.48;;;;;;;11.66;71.93;99536.34;5124452;28;20052;-62
2023/10/26 07:04:37;;;;;;;13.48;10.20;;;;;;;11.77;72.00;99548.81;5118231;28;20047;-62
2023/10/26 07:07:07;;;;;;;15.63;11.77;;;;;;;11.77;72.28;99547.97;5122832;28;20051;-62
2023/10/26 07:09:37;;;;;;;14.65;10.85;;;;;;;11.78;72.15;99549.63;5124799;28;20111;-62
2023/10/26 07:12:05;;;;;;;14.05;10.85;;;;;;;11.77;72.19;99554.22;5112273;28;20461;-62
2023/10/26 07:14:33;;;;;;;13.13;10.05;;;;;;;11.77;72.31;99558.75;5112063;28;20048;-63
2023/10/26 07:17:01;;;;;;;12.77;9.88;;;;;;;11.75;72.38;99559.00;5123807;28;20051;-62
2023/10/26 07:19:28;;;;;;;12.45;10.10;;;;;;;11.76;71.93;99562.50;5119751;28;20062;-62
2023/10/26 07:21:56;;;;;;;15.38;11.25;;;;;;;11.77;72.44;99558.75;5117973;28;20055;-62
2023/10/26 07:24:25;;;;;;;15.30;11.60;;;;;;;11.76;72.06;99554.44;5125597;28;20489;-63
2023/10/26 07:26:53;;;;;;;14.48;10.60;;;;;;;11.75;72.42;99548.25;5124417;28;20047;-62
2023/10/26 07:29:21;;;;;;;14.80;11.07;;;;;;;11.76;71.93;99546.38;5125020;28;20167;-62
2023/10/26 07:31:49;;;;;;;14.57;11.02;;;;;;;11.75;72.29;99550.94;5125039;28;20099;-62
2023/10/26 07:34:17;;;;;;;12.32;9.55;;;;;;;11.77;71.96;99558.75;5124946;28;20130;-62
2023/10/26 07:36:45;;;;;;;14.40;10.95;;;;;;;11.75;72.43;99553.63;5118019;28;20070;-62
2023/10/26 07:39:14;;;;;;;15.50;11.63;;;;;;;11.75;72.04;99553.63;5114906;28;20040;-63
2023/10/26 07:42:04;;;;;;;12.65;9.75;;;;;;;11.75;71.98;99550.94;5123533;28;20107;-61
2023/10/26 07:44:38;;;;;;;13.52;10.82;;;;;;;11.74;72.06;99560.09;5119468;28;20285;-62
2023/10/26 07:47:08;;;;;;;13.77;10.55;;;;;;;11.73;72.23;99559.28;5115327;28;20075;-62
2023/10/26 07:49:36;;;;;;;13.65;10.70;;;;;;;11.77;72.04;99566.81;5123841;28;20064;-62
2023/10/26 07:52:05;;;;;;;12.98;9.73;;;;;;;11.75;72.32;99564.41;5113998;28;20112;-62
2023/10/26 07:54:32;;;;;;;15.23;10.30;;;;;;;11.74;71.98;99566.28;5124831;28;20073;-62
2023/10/26 07:57:01;;;;;;;13.85;10.02;;;;;;;11.70;72.31;99565.19;5121870;28;20214;-61
2023/10/26 07:59:31;;;;;;;12.23;9.65;;;;;;;11.74;72.27;99568.16;5125022;28;20054;-63
2023/10/26 08:01:59;;;;;;;11.20;9.27;;;;;;;11.73;72.35;99574.63;5124732;28;20078;-64
2023/10/26 08:04:32;;;;;;;11.68;8.98;;;;;;;11.72;72.11;99581.06;5120500;28;20052;-62
2023/10/26 08:07:00;;;;;;;12.95;9.93;;;;;;;11.70;72.11;99578.63;5113451;28;20337;-62
2023/10/26 08:09:32;;;;;;;12.52;9.65;;;;;;;11.75;72.19;99588.63;5116327;28;20404;-62
2023/10/26 08:12:00;;;;;;;12.10;8.80;;;;;;;11.75;72.11;99588.63;5124363;28;20115;-62
2023/10/26 08:14:29;;;;;;;13.65;9.75;;;;;;;11.72;72.01;99573.81;5124411;28;20109;-62
2023/10/26 08:17:18;;;;;;;14.38;9.07;;;;;;;11.74;72.09;99577.03;5112764;28;20433;-62
2023/10/26 08:19:47;;;;;;;12.27;9.40;;;;;;;11.72;71.89;99581.06;5120424;28;20040;-62
2023/10/26 08:22:14;;;;;;;12.35;9.90;;;;;;;11.76;72.01;99587.56;5120047;28;20120;-62
2023/10/26 08:24:42;;;;;;;12.02;8.82;;;;;;;11.76;71.99;99589.44;5118985;28;20396;-62
2023/10/26 08:27:10;;;;;;;12.50;8.88;;;;;;;11.77;72.17;99593.75;5123010;28;21214;-62
2023/10/26 08:29:38;;;;;;;11.25;8.27;;;;;;;11.78;71.91;99585.44;5123367;28;20060;-62
2023/10/26 08:32:06;;;;;;;11.77;8.90;;;;;;;11.77;71.88;99577.59;5123654;28;20051;-62
2023/10/26 08:34:36;;;;;;;11.52;8.88;;;;;;;11.73;72.29;99572.72;5124083;28;20043;-62
2023/10/26 08:37:04;;;;;;;12.30;9.38;;;;;;;11.73;72.07;99591.56;5117929;28;20047;-62
2023/10/26 08:39:35;;;;;;;11.18;8.25;;;;;;;11.77;71.99;99593.75;5118785;28;20048;-62
2023/10/26 08:42:03;;;;;;;12.30;9.60;;;;;;;11.78;72.40;99587.31;5114320;28;20047;-62
2023/10/26 08:44:32;;;;;;;12.25;9.00;;;;;;;11.73;72.18;99582.69;5121709;28;20051;-61
2023/10/26 08:47:04;;;;;;;13.75;9.35;;;;;;;11.71;72.43;99574.88;5115860;28;20052;-62
2023/10/26 08:49:32;;;;;;;11.30;8.43;;;;;;;11.78;72.06;99595.41;5123965;28;20050;-62
2023/10/26 08:52:02;;;;;;;12.10;8.80;;;;;;;11.77;72.33;99586.50;5119567;28;20058;-62
2023/10/26 08:54:30;;;;;;;12.10;9.05;;;;;;;11.78;72.59;99585.44;5118866;28;20111;-62
2023/10/26 08:57:06;;;;;;;11.98;8.75;;;;;;;11.78;72.39;99585.44;5121202;28;20058;-63
2023/10/26 08:59:34;;;;;;;11.85;8.95;;;;;;;11.79;72.23;99587.06;5124033;28;20111;-63
2023/10/26 09:02:05;;;;;;;12.32;9.38;;;;;;;11.80;72.28;99582.50;5122674;28;20494;-63
2023/10/26 09:04:33;;;;;;;16.13;9.05;;;;;;;11.81;72.67;99584.09;5114429;28;20089;-63
2023/10/26 09:07:03;;;;;;;12.65;9.25;;;;;;;11.81;72.28;99584.91;5120823;28;20075;-63
2023/10/26 09:09:44;;;;;;;11.32;8.20;;;;;;;11.83;72.53;99581.97;5120120;28;20405;-61
2023/10/26 09:12:12;;;;;;;12.30;9.07;;;;;;;11.83;72.67;99579.28;5120090;28;20047;-62
2023/10/26 09:14:40;;;;;;;13.00;9.15;;;;;;;11.76;72.39;99567.91;5106395;28;20571;-62
2023/10/26 09:17:25;;;;;;;11.52;8.20;;;;;;;11.83;72.34;99572.00;5122229;28;20477;-62
2023/10/26 09:19:53;;;;;;;12.27;9.15;;;;;;;11.82;72.75;99575.78;5123433;28;20047;-62
2023/10/26 09:22:37;;;;;;;12.18;8.35;;;;;;;11.84;72.52;99579.00;5126343;28;20059;-61
2023/10/26 09:25:08;;;;;;;11.18;8.13;;;;;;;11.85;72.77;99577.94;5125426;28;20495;-61
2023/10/26 09:27:36;;;;;;;11.40;8.35;;;;;;;11.85;72.70;99587.91;5122253;28;20040;-61
2023/10/26 09:30:05;;;;;;;11.05;7.97;;;;;;;11.86;72.40;99589.53;5121801;28;20066;-62
2023/10/26 09:32:34;;;;;;;11.57;8.50;;;;;;;11.87;72.78;99593.84;5127002;28;20504;-61
2023/10/26 09:35:03;;;;;;;9.77;7.40;;;;;;;11.86;72.45;99589.53;5122872;28;20306;-62
2023/10/26 09:37:50;;;;;;;10.57;7.85;;;;;;;11.88;72.57;99587.38;5118543;28;20084;-61
2023/10/26 09:40:19;;;;;;;10.63;7.63;;;;;;;11.86;72.82;99576.88;5126184;28;20325;-62
2023/10/26 09:42:48;;;;;;;11.10;8.43;;;;;;;11.88;72.53;99574.72;5126071;28;20127;-62
2023/10/26 09:45:18;;;;;;;11.48;7.68;;;;;;;11.88;72.68;99566.66;5124068;28;20148;-62
2023/10/26 09:47:46;;;;;;;12.43;7.80;;;;;;;11.89;72.80;99567.47;5127620;28;20055;-62
2023/10/26 09:50:14;;;;;;;10.68;8.18;;;;;;;11.87;72.72;99569.59;5126841;28;20059;-63
2023/10/26 09:52:44;;;;;;;10.32;7.43;;;;;;;11.89;72.46;99565.59;5125905;28;20052;-62
2023/10/26 09:55:13;;;;;;;11.50;8.15;;;;;;;11.89;72.59;99559.38;5118694;28;20047;-63
2023/10/26 09:57:46;;;;;;;9.85;7.60;;;;;;;11.91;72.76;99558.06;5127294;28;20047;-62
2023/10/26 10:00:14;;;;;;;9.38;7.45;;;;;;;11.92;72.77;99556.97;5127479;28;20043;-61
2023/10/26 10:02:42;;;;;;;11.07;8.30;;;;;;;11.93;72.81;99555.09;5123686;28;20047;-62
2023/10/26 10:05:37;;;;;;;10.88;7.68;;;;;;;11.92;72.84;99548.91;5126397;28;20079;-62
2023/10/26 10:08:07;;;;;;;11.95;8.23;;;;;;;11.94;72.78;99545.94;5112896;28;20071;-62
2023/10/26 10:10:35;;;;;;;10.18;7.30;;;;;;;11.92;72.63;99542.72;5123338;28;20048;-61
2023/10/26 10:13:04;;;;;;;10.93;8.27;;;;;;;11.92;72.57;99540.81;5125499;28;20047;-61
2023/10/26 10:15:38;;;;;;;12.70;8.40;;;;;;;11.93;72.66;99533.56;5121957;28;20127;-62
2023/10/26 10:18:10;;;;;;;9.52;7.35;;;;;;;11.91;72.76;99530.31;5126896;28;20090;-62
2023/10/26 10:20:41;;;;;;;12.60;8.23;;;;;;;11.94;72.77;99537.88;5122355;28;20055;-62
2023/10/26 10:23:29;;;;;;;13.18;8.82;;;;;;;11.95;72.49;99536.81;5122369;28;20071;-62
2023/10/26 10:26:00;;;;;;;10.15;7.78;;;;;;;11.96;72.85;99531.16;5112636;28;20060;-62
2023/10/26 10:28:48;;;;;;;14.77;9.38;;;;;;;11.96;72.91;99528.47;5122456;28;20075;-62
2023/10/26 10:31:39;;;;;;;13.38;9.27;;;;;;;11.96;72.99;99516.88;5126071;28;20135;-61
2023/10/26 10:34:09;;;;;;;12.30;8.13;;;;;;;11.92;72.58;99519.28;5116226;28;20523;-62
2023/10/26 10:37:10;;;;;;;12.50;8.43;;;;;;;11.97;72.53;99537.34;5117748;28;20040;-62
2023/10/26 10:39:39;;;;;;;11.45;9.10;;;;;;;11.95;72.77;99529.53;5121247;28;20048;-62
2023/10/26 10:42:11;;;;;;;13.32;8.23;;;;;;;11.98;72.52;99533.59;5124586;28;20047;-61
2023/10/26 10:44:39;;;;;;;13.30;9.05;;;;;;;11.97;72.54;99527.38;5124499;28;20070;-62
2023/10/26 10:47:08;;;;;;;13.30;8.40;;;;;;;12.01;72.90;99525.78;5123497;28;20056;-62
2023/10/26 10:49:36;;;;;;;12.13;8.45;;;;;;;12.01;72.83;99515.00;5121759;28;20044;-64
2023/10/26 10:52:13;;;;;;;10.48;7.90;;;;;;;12.00;72.84;99510.69;5123863;28;20104;-64
2023/10/26 10:54:49;;;;;;;10.85;8.15;;;;;;;12.03;72.39;99517.44;5110195;28;20051;-64
2023/10/26 10:57:31;;;;;;;11.63;7.93;;;;;;;12.04;72.61;99508.28;5120259;28;20077;-64
2023/10/26 10:59:59;;;;;;;14.82;9.68;;;;;;;12.03;72.80;99501.28;5126586;28;20055;-64
2023/10/26 11:02:27;;;;;;;11.80;8.30;;;;;;;12.01;72.55;99500.75;5120510;28;20044;-64
2023/10/26 11:04:56;;;;;;;11.23;8.18;;;;;;;11.90;72.78;99488.31;5114516;28;20044;-63
2023/10/26 11:07:43;;;;;;;17.10;10.02;;;;;;;12.05;72.76;99501.84;5121792;28;20063;-63
2023/10/26 11:10:12;;;;;;;13.70;9.95;;;;;;;12.05;72.63;99499.13;5114732;28;20225;-63
2023/10/26 11:12:40;;;;;;;14.43;9.43;;;;;;;12.03;72.96;99496.72;5119533;28;20055;-62
2023/10/26 11:15:09;;;;;;;12.38;9.27;;;;;;;12.04;72.71;99487.56;5108810;28;20077;-63
2023/10/26 11:17:39;;;;;;;13.45;10.23;;;;;;;12.04;72.99;99492.13;5122120;28;20055;-61
2023/10/26 11:20:34;;;;;;;14.27;10.40;;;;;;;12.02;72.78;99484.31;5124258;28;20071;-63
2023/10/26 11:23:02;;;;;;;14.63;9.48;;;;;;;12.03;73.09;99483.25;5123127;28;20059;-62
2023/10/26 11:25:31;;;;;;;14.50;10.02;;;;;;;12.07;73.09;99485.41;5125589;28;20104;-63
2023/10/26 11:27:59;;;;;;;13.18;9.43;;;;;;;12.07;72.80;99488.09;5123407;28;20150;-62
2023/10/26 11:30:27;;;;;;;16.02;10.40;;;;;;;12.08;72.93;99487.84;5122470;28;20044;-62
2023/10/26 11:32:55;;;;;;;14.50;10.15;;;;;;;12.08;73.03;99487.84;5125616;28;20051;-62
2023/10/26 11:35:25;;;;;;;13.02;9.23;;;;;;;12.07;73.05;99488.09;5121235;28;20104;-63
2023/10/26 11:37:54;;;;;;;13.50;9.43;;;;;;;12.12;72.71;99496.19;5119403;28;20055;-63
2023/10/26 11:40:31;;;;;;;13.18;9.40;;;;;;;12.12;72.75;99483.53;5124125;28;20047;-64